Time;durP1;ratioP1;P1;durP2;ratioP2;P2;SDS_P1;SDS_P2;PMS_P1;PMS_P2;Temp;Humidity;BMP_temperature;BMP_pressure;BME280_temperature;BME280_humidity;BME280_pressure;Samples;Min_cycle;Max_cycle;Signal;HPM_P1;HPM_P2
2021/09/19 00:00:39;;;;;;;;;;;12.50;99.90;;;;;;5091764;28;19908;-85
2021/09/19 00:03:05;;;;;;;;;;;12.50;99.90;;;;;;5093199;28;19938;-82
2021/09/19 00:05:30;;;;;;;;;;;12.50;99.90;;;;;;5091474;28;20388;-83
2021/09/19 00:07:56;;;;;;;;;;;12.50;99.90;;;;;;5092983;28;19947;-83
2021/09/19 00:10:21;;;;;;;;;;;12.50;99.90;;;;;;5091843;28;20326;-84
2021/09/19 00:12:47;;;;;;;;;;;12.60;99.90;;;;;;5090739;28;20380;-81
2021/09/19 00:15:14;;;;;;;;;;;12.60;99.90;;;;;;5091128;28;19916;-82
2021/09/19 00:17:40;;;;;;;;;;;12.70;99.90;;;;;;5089664;28;19914;-82
2021/09/19 00:20:06;;;;;;;;;;;12.80;99.90;;;;;;5090598;28;19908;-80
2021/09/19 00:22:32;;;;;;;;;;;12.80;99.90;;;;;;5090491;28;19954;-82
2021/09/19 00:24:58;;;;;;;;;;;12.90;99.90;;;;;;5089265;28;19979;-80
2021/09/19 00:27:23;;;;;;;;;;;12.90;99.90;;;;;;5089769;28;20007;-81
2021/09/19 00:29:49;;;;;;;;;;;12.90;99.90;;;;;;5090390;28;19908;-81
2021/09/19 00:32:14;;;;;;;;;;;12.90;99.90;;;;;;5089725;28;20007;-81
2021/09/19 00:34:40;;;;;;;;;;;12.90;99.90;;;;;;5089428;28;19951;-80
2021/09/19 00:37:05;;;;;;;;;;;12.90;99.90;;;;;;5088632;28;20404;-79
2021/09/19 00:39:31;;;;;;;;;;;12.90;99.90;;;;;;5088904;28;19912;-82
2021/09/19 00:41:56;;;;;;;;;;;12.90;99.90;;;;;;5090987;28;19911;-81
2021/09/19 00:44:27;;;;;;;;;;;12.80;99.90;;;;;;5089575;28;19947;-81
2021/09/19 00:46:53;;;;;;;;;;;12.90;99.90;;;;;;5090009;28;20043;-82
2021/09/19 00:49:18;;;;;;;;;;;12.90;99.90;;;;;;5091334;28;20006;-83
2021/09/19 00:51:44;;;;;;;;;;;12.90;99.90;;;;;;5091310;28;20002;-83
2021/09/19 00:54:10;;;;;;;;;;;12.90;99.90;;;;;;5091844;28;19908;-84
2021/09/19 00:56:36;;;;;;;;;;;12.90;99.90;;;;;;5089708;28;19946;-81
2021/09/19 00:59:02;;;;;;;;;;;12.90;99.90;;;;;;5089703;28;19951;-83
2021/09/19 01:01:27;;;;;;;;;;;12.90;99.90;;;;;;5090004;28;19934;-82
2021/09/19 01:03:53;;;;;;;;;;;12.80;99.90;;;;;;5090539;28;19956;-82
2021/09/19 01:06:19;;;;;;;;;;;12.80;99.90;;;;;;5089787;28;19998;-81
2021/09/19 01:08:45;;;;;;;;;;;12.80;99.90;;;;;;5090354;28;20376;-82
2021/09/19 01:11:11;;;;;;;;;;;12.70;99.90;;;;;;5090462;28;19916;-82
2021/09/19 01:13:39;;;;;;;;;;;12.60;99.90;;;;;;5090332;28;19919;-83
2021/09/19 01:16:05;;;;;;;;;;;12.60;99.90;;;;;;5089354;28;20568;-82
2021/09/19 01:18:31;;;;;;;;;;;12.60;99.90;;;;;;5089968;28;19907;-83
2021/09/19 01:20:57;;;;;;;;;;;12.50;99.90;;;;;;5090654;28;20014;-82
2021/09/19 01:23:22;;;;;;;;;;;12.40;99.90;;;;;;5090651;28;19991;-82
2021/09/19 01:25:48;;;;;;;;;;;12.30;99.90;;;;;;5089403;28;19908;-82
2021/09/19 01:28:14;;;;;;;;;;;12.30;99.90;;;;;;5090420;28;19915;-82
2021/09/19 01:30:40;;;;;;;;;;;12.20;99.90;;;;;;5091823;28;19908;-82
2021/09/19 01:33:05;;;;;;;;;;;12.10;99.90;;;;;;5089843;28;20346;-82
2021/09/19 01:35:31;;;;;;;;;;;12.10;99.90;;;;;;5088737;28;20018;-81
2021/09/19 01:37:57;;;;;;;;;;;12.00;99.90;;;;;;5088888;28;19908;-83
2021/09/19 01:40:23;;;;;;;;;;;12.00;99.90;;;;;;5088488;28;19957;-83
2021/09/19 01:42:48;;;;;;;;;;;11.90;99.90;;;;;;5089675;28;19915;-83
2021/09/19 01:45:14;;;;;;;;;;;12.00;99.90;;;;;;5087651;28;19908;-82
2021/09/19 01:47:39;;;;;;;;;;;11.90;99.90;;;;;;5089633;28;19915;-82
2021/09/19 01:50:05;;;;;;;;;;;12.00;99.90;;;;;;5089286;28;19949;-81
2021/09/19 01:52:31;;;;;;;;;;;12.00;99.90;;;;;;5088619;28;19915;-83
2021/09/19 01:55:00;;;;;;;;;;;12.00;99.90;;;;;;5089054;28;20264;-82
2021/09/19 01:57:26;;;;;;;;;;;11.90;99.90;;;;;;5087516;28;19914;-80
2021/09/19 01:59:53;;;;;;;;;;;12.00;99.90;;;;;;5087853;28;19908;-80
2021/09/19 02:02:18;;;;;;;;;;;11.90;99.90;;;;;;5089177;28;19907;-81
2021/09/19 02:04:45;;;;;;;;;;;11.90;99.90;;;;;;5088142;28;20272;-81
2021/09/19 02:07:10;;;;;;;;;;;11.80;99.90;;;;;;5089414;28;20665;-80
2021/09/19 02:09:36;;;;;;;;;;;11.80;99.90;;;;;;5088172;28;20625;-83
2021/09/19 02:12:02;;;;;;;;;;;11.80;99.90;;;;;;5086912;28;19920;-81
2021/09/19 02:14:27;;;;;;;;;;;11.80;99.90;;;;;;5088468;28;19916;-80
2021/09/19 02:16:53;;;;;;;;;;;11.70;99.90;;;;;;5086663;28;19908;-80
2021/09/19 02:19:18;;;;;;;;;;;11.70;99.90;;;;;;5088312;28;19953;-80
2021/09/19 02:21:44;;;;;;;;;;;11.80;99.90;;;;;;5089685;28;19904;-83
2021/09/19 02:24:10;;;;;;;;;;;11.70;99.90;;;;;;5088482;28;19954;-82
2021/09/19 02:26:35;;;;;;;;;;;11.70;99.90;;;;;;5089442;28;19904;-82
2021/09/19 02:29:01;;;;;;;;;;;11.80;99.90;;;;;;5089132;28;19915;-83
2021/09/19 02:31:26;;;;;;;;;;;11.70;99.90;;;;;;5087715;28;19916;-81
2021/09/19 02:33:52;;;;;;;;;;;11.80;99.90;;;;;;5088813;28;19911;-83
2021/09/19 02:36:17;;;;;;;;;;;11.80;99.90;;;;;;5088595;28;19904;-82
2021/09/19 02:38:43;;;;;;;;;;;11.80;99.90;;;;;;5086633;28;20304;-83
2021/09/19 02:41:08;;;;;;;;;;;11.90;99.90;;;;;;5089115;28;19908;-79
2021/09/19 02:43:34;;;;;;;;;;;11.90;99.90;;;;;;5087581;28;20409;-80
2021/09/19 02:46:01;;;;;;;;;;;11.90;99.90;;;;;;5087327;28;19959;-81
2021/09/19 02:48:26;;;;;;;;;;;11.90;99.90;;;;;;5087601;28;20350;-80
2021/09/19 02:50:52;;;;;;;;;;;11.90;99.90;;;;;;5087179;28;19953;-80
2021/09/19 02:53:17;;;;;;;;;;;12.00;99.90;;;;;;5087440;28;20395;-80
2021/09/19 02:55:43;;;;;;;;;;;12.10;99.90;;;;;;5086881;28;19961;-80
2021/09/19 02:58:08;;;;;;;;;;;12.10;99.90;;;;;;5087277;28;19908;-81
2021/09/19 03:00:34;;;;;;;;;;;12.20;99.90;;;;;;5086827;28;20372;-82
2021/09/19 03:02:59;;;;;;;;;;;12.30;99.90;;;;;;5085965;28;19908;-82
2021/09/19 03:05:25;;;;;;;;;;;12.50;99.90;;;;;;5086814;28;19908;-81
2021/09/19 03:07:52;;;;;;;;;;;12.50;99.90;;;;;;5087964;28;19927;-82
2021/09/19 03:10:18;;;;;;;;;;;12.50;99.90;;;;;;5088623;28;19907;-82
2021/09/19 03:12:44;;;;;;;;;;;12.60;99.90;;;;;;5087771;28;19922;-82
2021/09/19 03:15:10;;;;;;;;;;;12.70;99.90;;;;;;5085829;28;19962;-82
2021/09/19 03:17:36;;;;;;;;;;;12.70;99.90;;;;;;5086682;28;19904;-82
2021/09/19 03:20:02;;;;;;;;;;;12.70;99.90;;;;;;5087916;28;19999;-82
2021/09/19 03:22:28;;;;;;;;;;;12.70;99.90;;;;;;5087945;28;19915;-82
2021/09/19 03:24:54;;;;;;;;;;;12.70;99.90;;;;;;5087659;28;20434;-82
2021/09/19 03:27:19;;;;;;;;;;;12.70;99.90;;;;;;5086537;28;20657;-82
2021/09/19 03:29:45;;;;;;;;;;;12.60;99.90;;;;;;5085799;28;19908;-82
2021/09/19 03:32:10;;;;;;;;;;;12.50;99.90;;;;;;5085671;28;20375;-82
2021/09/19 03:34:37;;;;;;;;;;;12.50;99.90;;;;;;5085858;28;19916;-82
2021/09/19 03:37:03;;;;;;;;;;;12.40;99.90;;;;;;5085745;28;19929;-81
2021/09/19 03:39:29;;;;;;;;;;;12.30;99.90;;;;;;5085815;28;20002;-82
2021/09/19 03:41:54;;;;;;;;;;;12.30;99.90;;;;;;5087360;28;19995;-81
2021/09/19 03:44:20;;;;;;;;;;;12.30;99.90;;;;;;5086585;28;20591;-82
2021/09/19 03:46:45;;;;;;;;;;;12.30;99.90;;;;;;5086060;28;19958;-82
2021/09/19 03:49:11;;;;;;;;;;;12.30;99.90;;;;;;5085356;28;19919;-78
2021/09/19 03:51:36;;;;;;;;;;;12.40;99.90;;;;;;5085470;28;19908;-81
2021/09/19 03:54:02;;;;;;;;;;;12.40;99.90;;;;;;5085019;28;19916;-79
2021/09/19 03:56:28;;;;;;;;;;;12.40;99.90;;;;;;5085347;28;20003;-81
2021/09/19 03:58:53;;;;;;;;;;;12.40;99.90;;;;;;5084827;28;19908;-80
2021/09/19 04:01:19;;;;;;;;;;;12.40;99.90;;;;;;5085577;28;20280;-81
2021/09/19 04:03:44;;;;;;;;;;;12.50;99.90;;;;;;5085499;28;19915;-80
2021/09/19 04:06:10;;;;;;;;;;;12.50;99.90;;;;;;5086959;28;19912;-82
2021/09/19 04:08:36;;;;;;;;;;;12.40;99.90;;;;;;5088955;28;19917;-82
2021/09/19 04:11:01;;;;;;;;;;;12.40;99.90;;;;;;5090802;28;19919;-83
2021/09/19 04:13:27;;;;;;;;;;;12.40;99.90;;;;;;5088598;28;19920;-80
2021/09/19 04:15:52;;;;;;;;;;;12.30;99.90;;;;;;5090713;28;20375;-82
2021/09/19 04:18:18;;;;;;;;;;;12.20;99.90;;;;;;5090528;28;19908;-81
2021/09/19 04:20:44;;;;;;;;;;;12.20;99.90;;;;;;5088831;28;19961;-82
2021/09/19 04:23:09;;;;;;;;;;;12.20;99.90;;;;;;5089473;28;19977;-82
2021/09/19 04:25:35;;;;;;;;;;;12.20;99.90;;;;;;5089130;28;19903;-81
2021/09/19 04:28:01;;;;;;;;;;;12.20;99.90;;;;;;5090381;28;19908;-82
2021/09/19 04:30:26;;;;;;;;;;;12.30;99.90;;;;;;5090486;28;19907;-82
2021/09/19 04:32:52;;;;;;;;;;;12.30;99.90;;;;;;5089351;28;19965;-80
2021/09/19 04:35:17;;;;;;;;;;;12.30;99.90;;;;;;5089209;28;19912;-82
2021/09/19 04:37:43;;;;;;;;;;;12.40;99.90;;;;;;5089287;28;19907;-83
2021/09/19 04:40:08;;;;;;;;;;;12.50;99.90;;;;;;5091019;28;20368;-82
2021/09/19 04:42:34;;;;;;;;;;;12.50;99.90;;;;;;5089795;28;19904;-83
2021/09/19 04:45:00;;;;;;;;;;;12.60;99.90;;;;;;5089493;28;19904;-83
2021/09/19 04:47:25;;;;;;;;;;;12.60;99.90;;;;;;5089972;28;19915;-82
2021/09/19 04:49:51;;;;;;;;;;;12.70;99.90;;;;;;5089217;28;19919;-82
2021/09/19 04:52:16;;;;;;;;;;;12.70;99.90;;;;;;5090742;28;19951;-83
2021/09/19 04:54:42;;;;;;;;;;;12.70;99.90;;;;;;5090941;28;19916;-82
2021/09/19 04:57:07;;;;;;;;;;;12.80;99.90;;;;;;5090797;28;19930;-83
2021/09/19 04:59:35;;;;;;;;;;;12.80;99.90;;;;;;5088994;28;20493;-82
2021/09/19 05:02:01;;;;;;;;;;;12.80;99.90;;;;;;5089782;28;19908;-83
2021/09/19 05:04:26;;;;;;;;;;;12.80;99.90;;;;;;5090874;28;19908;-83
2021/09/19 05:06:52;;;;;;;;;;;12.80;99.90;;;;;;5089854;28;19912;-81
2021/09/19 05:09:17;;;;;;;;;;;12.80;99.90;;;;;;5089439;28;19908;-78
2021/09/19 05:11:43;;;;;;;;;;;12.90;99.90;;;;;;5088562;28;19966;-79
2021/09/19 05:14:08;;;;;;;;;;;12.90;99.90;;;;;;5087121;28;20392;-81
2021/09/19 05:16:34;;;;;;;;;;;12.90;99.90;;;;;;5088062;28;19991;-85
2021/09/19 05:18:59;;;;;;;;;;;13.00;99.90;;;;;;5087745;28;20352;-80
2021/09/19 05:21:25;;;;;;;;;;;13.10;99.90;;;;;;5087484;28;20006;-80
2021/09/19 05:23:51;;;;;;;;;;;13.20;99.90;;;;;;5089056;28;19977;-82
2021/09/19 05:26:16;;;;;;;;;;;13.30;99.90;;;;;;5087331;28;19965;-81
2021/09/19 05:28:42;;;;;;;;;;;13.40;99.90;;;;;;5086987;28;19908;-81
2021/09/19 05:31:08;;;;;;;;;;;13.50;99.90;;;;;;5087329;28;19958;-80
2021/09/19 05:33:33;;;;;;;;;;;13.70;99.90;;;;;;5088065;28;20384;-81
2021/09/19 05:35:58;;;;;;;;;;;14.00;99.90;;;;;;5088627;28;19911;-81
2021/09/19 05:38:24;;;;;;;;;;;14.30;99.90;;;;;;5088678;28;19915;-81
2021/09/19 05:40:50;;;;;;;;;;;14.70;99.90;;;;;;5088178;28;20272;-82
2021/09/19 05:43:15;;;;;;;;;;;15.00;99.90;;;;;;5085510;28;20006;-82
2021/09/19 05:45:41;;;;;;;;;;;15.40;99.90;;;;;;5084408;28;19959;-82
2021/09/19 05:48:06;;;;;;;;;;;15.60;99.90;;;;;;5076517;28;20485;-81
2021/09/19 05:50:32;;;;;;;;;;;15.80;99.90;;;;;;5087319;28;20707;-81
2021/09/19 05:52:58;;;;;;;;;;;15.90;99.90;;;;;;5079650;28;19912;-82
2021/09/19 05:55:23;;;;;;;;;;;15.90;99.90;;;;;;5079785;28;19951;-82
2021/09/19 05:57:49;;;;;;;;;;;16.00;99.90;;;;;;5083089;28;20007;-81
2021/09/19 06:00:14;;;;;;;;;;;16.10;99.90;;;;;;5081577;28;19912;-82
2021/09/19 06:02:40;;;;;;;;;;;16.20;99.90;;;;;;5082633;28;19957;-81
2021/09/19 06:05:06;;;;;;;;;;;16.20;99.90;;;;;;5084137;28;19950;-81
2021/09/19 06:07:32;;;;;;;;;;;16.30;99.90;;;;;;5084940;28;19920;-81
2021/09/19 06:09:57;;;;;;;;;;;16.30;99.90;;;;;;5085249;28;19969;-83
2021/09/19 06:12:23;;;;;;;;;;;16.50;99.90;;;;;;5085619;28;19930;-81
2021/09/19 06:14:49;;;;;;;;;;;16.60;99.70;;;;;;5086404;28;19936;-81
2021/09/19 06:17:16;;;;;;;;;;;16.70;99.10;;;;;;5082839;28;20347;-81
2021/09/19 06:19:42;;;;;;;;;;;16.80;98.70;;;;;;5083922;28;19923;-82
2021/09/19 06:22:07;;;;;;;;;;;17.10;97.60;;;;;;5082296;28;20096;-82
2021/09/19 06:24:33;;;;;;;;;;;17.50;96.90;;;;;;5084463;28;20006;-82
2021/09/19 06:26:59;;;;;;;;;;;18.00;95.90;;;;;;5081926;28;19912;-82
2021/09/19 06:29:24;;;;;;;;;;;18.60;94.90;;;;;;5085888;28;19912;-81
2021/09/19 06:31:50;;;;;;;;;;;19.10;93.30;;;;;;5084888;28;20038;-78
2021/09/19 06:34:15;;;;;;;;;;;19.70;92.30;;;;;;5084115;28;20023;-78
2021/09/19 06:36:41;;;;;;;;;;;20.30;89.50;;;;;;5085190;28;19915;-80
2021/09/19 06:39:06;;;;;;;;;;;20.90;86.40;;;;;;5084843;28;19999;-81
2021/09/19 06:41:32;;;;;;;;;;;21.60;82.60;;;;;;5081697;28;19965;-80
2021/09/19 06:43:57;;;;;;;;;;;22.20;78.10;;;;;;5085159;28;19912;-80
2021/09/19 06:46:27;;;;;;;;;;;22.80;75.70;;;;;;5084509;28;19961;-79
2021/09/19 06:48:53;;;;;;;;;;;23.40;72.20;;;;;;5082848;28;19916;-80
2021/09/19 06:51:18;;;;;;;;;;;23.70;68.50;;;;;;5081804;28;20308;-80
2021/09/19 06:53:44;;;;;;;;;;;24.10;65.40;;;;;;5085634;28;19918;-79
2021/09/19 06:56:09;;;;;;;;;;;24.20;64.50;;;;;;5081623;28;20010;-80
2021/09/19 06:58:35;;;;;;;;;;;24.60;63.10;;;;;;5085570;28;20023;-80
2021/09/19 07:01:01;;;;;;;;;;;24.70;61.80;;;;;;5085398;28;19981;-80
2021/09/19 07:03:27;;;;;;;;;;;24.90;60.00;;;;;;5083827;28;19963;-80
2021/09/19 07:05:52;;;;;;;;;;;25.50;58.70;;;;;;5085684;28;20008;-81
2021/09/19 07:08:18;;;;;;;;;;;25.70;57.10;;;;;;5084540;28;19978;-80
2021/09/19 07:10:43;;;;;;;;;;;26.00;56.20;;;;;;5085657;28;20004;-80
2021/09/19 07:13:09;;;;;;;;;;;26.20;54.70;;;;;;5080399;28;20062;-80
2021/09/19 07:15:34;;;;;;;;;;;26.50;53.90;;;;;;5082494;28;20772;-81
2021/09/19 07:18:00;;;;;;;;;;;26.60;53.20;;;;;;5085548;28;19923;-80
2021/09/19 07:20:25;;;;;;;;;;;26.60;53.30;;;;;;5085510;28;19916;-80
2021/09/19 07:22:51;;;;;;;;;;;26.80;53.50;;;;;;5085225;28;20535;-79
2021/09/19 07:25:16;;;;;;;;;;;27.20;52.70;;;;;;5078082;28;19920;-79
2021/09/19 07:27:43;;;;;;;;;;;27.30;52.60;;;;;;5082894;28;19912;-79
2021/09/19 07:30:09;;;;;;;;;;;27.50;51.30;;;;;;5083822;28;19951;-79
2021/09/19 07:32:35;;;;;;;;;;;27.70;46.80;;;;;;5083322;28;19927;-79
2021/09/19 07:35:01;;;;;;;;;;;28.20;45.90;;;;;;5079784;28;19920;-78
2021/09/19 07:37:28;;;;;;;;;;;28.10;47.50;;;;;;5077759;28;19916;-80
2021/09/19 07:39:53;;;;;;;;;;;28.40;44.70;;;;;;5083562;28;20018;-79
2021/09/19 07:42:19;;;;;;;;;;;28.60;43.60;;;;;;5083695;28;20049;-78
2021/09/19 07:44:45;;;;;;;;;;;28.30;43.40;;;;;;5083608;28;19920;-79
2021/09/19 07:47:10;;;;;;;;;;;27.60;44.40;;;;;;5089677;28;19927;-79
2021/09/19 07:49:39;;;;;;;;;;;27.00;46.90;;;;;;5087851;28;19927;-80
2021/09/19 07:52:05;;;;;;;;;;;27.20;47.70;;;;;;5089626;28;19920;-78
2021/09/19 07:54:31;;;;;;;;;;;27.30;47.60;;;;;;5085865;28;20453;-79
2021/09/19 07:56:56;;;;;;;;;;;27.20;47.70;;;;;;5086227;28;20058;-79
2021/09/19 07:59:22;;;;;;;;;;;27.40;47.60;;;;;;5087653;28;19916;-78
2021/09/19 08:01:47;;;;;;;;;;;27.60;46.70;;;;;;5081926;28;20289;-79
2021/09/19 08:04:13;;;;;;;;;;;27.20;47.70;;;;;;5086369;28;19915;-78
2021/09/19 08:06:38;;;;;;;;;;;27.00;48.30;;;;;;5084550;28;20057;-79
2021/09/19 08:09:04;;;;;;;;;;;26.90;49.00;;;;;;5087413;28;20439;-79
2021/09/19 08:11:29;;;;;;;;;;;27.40;47.10;;;;;;5085114;28;19933;-78
2021/09/19 08:14:06;;;;;;;;;;;27.20;47.00;;;;;;5087229;28;19923;-78
2021/09/19 08:16:35;;;;;;;;;;;26.40;48.60;;;;;;5086709;28;19928;-78
2021/09/19 08:19:00;;;;;;;;;;;26.00;50.20;;;;;;5085291;28;20191;-79
2021/09/19 08:21:26;;;;;;;;;;;25.80;50.70;;;;;;5085689;28;20002;-80
2021/09/19 08:23:51;;;;;;;;;;;25.60;50.10;;;;;;5088652;28;19916;-79
2021/09/19 08:26:17;;;;;;;;;;;25.60;50.40;;;;;;5082048;28;19979;-81
2021/09/19 08:28:42;;;;;;;;;;;25.60;50.90;;;;;;5079437;28;19977;-78
2021/09/19 08:31:07;;;;;;;;;;;25.50;50.40;;;;;;5086616;28;19916;-79
2021/09/19 08:33:33;;;;;;;;;;;25.50;50.00;;;;;;5085364;28;20173;-82
2021/09/19 08:36:00;;;;;;;;;;;25.20;50.50;;;;;;5087866;28;19920;-80
2021/09/19 08:38:25;;;;;;;;;;;24.90;50.20;;;;;;5087743;28;19920;-81
2021/09/19 08:40:51;;;;;;;;;;;24.40;50.60;;;;;;5083950;28;19920;-79
2021/09/19 08:43:17;;;;;;;;;;;23.90;51.40;;;;;;5085963;28;20296;-80
2021/09/19 08:45:47;;;;;;;;;;;23.10;51.30;;;;;;5081286;28;20144;-80
2021/09/19 08:48:14;;;;;;;;;;;22.50;52.00;;;;;;5086130;28;20379;-80
2021/09/19 08:50:40;;;;;;;;;;;22.10;53.00;;;;;;5081746;28;19946;-81
2021/09/19 08:53:05;;;;;;;;;;;22.20;54.30;;;;;;5081592;28;20121;-80
2021/09/19 08:55:31;;;;;;;;;;;22.90;53.10;;;;;;5082219;28;19927;-80
2021/09/19 08:57:56;;;;;;;;;;;23.20;52.50;;;;;;5087028;28;19991;-82
2021/09/19 09:00:22;;;;;;;;;;;23.10;53.20;;;;;;5088395;28;19907;-81
2021/09/19 09:02:53;;;;;;;;;;;23.00;53.80;;;;;;5088915;28;20400;-81
2021/09/19 09:05:26;;;;;;;;;;;22.90;54.00;;;;;;5088980;28;19908;-81
2021/09/19 09:07:52;;;;;;;;;;;22.80;54.70;;;;;;5089313;28;20006;-81
2021/09/19 09:10:28;;;;;;;;;;;22.70;55.00;;;;;;5087860;28;20456;-81
2021/09/19 09:12:58;;;;;;;;;;;22.70;54.40;;;;;;5087964;28;20273;-81
2021/09/19 09:15:30;;;;;;;;;;;22.70;55.00;;;;;;5087484;28;19968;-81
2021/09/19 09:17:55;;;;;;;;;;;22.80;54.80;;;;;;5088995;28;19932;-81
2021/09/19 09:20:21;;;;;;;;;;;22.60;54.80;;;;;;5088661;28;19912;-81
2021/09/19 09:22:46;;;;;;;;;;;22.40;54.90;;;;;;5087813;28;19908;-80
2021/09/19 09:25:13;;;;;;;;;;;22.00;56.40;;;;;;5087640;28;19908;-82
2021/09/19 09:27:42;;;;;;;;;;;21.80;56.70;;;;;;5088848;28;19904;-80
2021/09/19 09:30:14;;;;;;;;;;;21.90;56.40;;;;;;5088603;28;19904;-80
2021/09/19 09:32:58;;;;;;;;;;;22.40;55.80;;;;;;5088963;28;19926;-82
2021/09/19 09:35:25;;;;;;;;;;;23.10;54.20;;;;;;5087231;28;19919;-82
2021/09/19 09:37:51;;;;;;;;;;;23.40;52.80;;;;;;5087632;28;20261;-81
2021/09/19 09:40:28;;;;;;;;;;;23.90;51.70;;;;;;5088026;28;19908;-81
2021/09/19 09:43:11;;;;;;;;;;;24.50;50.20;;;;;;5087224;28;19951;-82
2021/09/19 09:45:37;;;;;;;;;;;25.00;50.00;;;;;;5088288;28;20679;-81
2021/09/19 09:48:04;;;;;;;;;;;25.00;49.20;;;;;;5088639;28;19922;-81
2021/09/19 09:50:30;;;;;;;;;;;25.50;48.70;;;;;;5088609;28;20022;-81
2021/09/19 09:53:12;;;;;;;;;;;26.00;47.90;;;;;;5086744;28;19907;-82
2021/09/19 09:55:45;;;;;;;;;;;26.80;46.80;;;;;;5086057;28;20287;-82
2021/09/19 09:58:12;;;;;;;;;;;27.60;44.80;;;;;;5088326;28;19908;-82
2021/09/19 10:00:39;;;;;;;;;;;27.90;43.50;;;;;;5088211;28;19904;-82
2021/09/19 10:03:05;;;;;;;;;;;28.00;43.50;;;;;;5087618;28;19942;-82
2021/09/19 10:05:30;;;;;;;;;;;28.00;43.60;;;;;;5086745;28;20013;-81
2021/09/19 10:07:58;;;;;;;;;;;28.30;42.80;;;;;;5087999;28;20367;-82
2021/09/19 10:10:25;;;;;;;;;;;28.40;42.70;;;;;;5087813;28;19949;-82
2021/09/19 10:12:51;;;;;;;;;;;28.70;42.40;;;;;;5087728;28;20445;-81
2021/09/19 10:15:17;;;;;;;;;;;28.70;41.90;;;;;;5087679;28;19965;-81
2021/09/19 10:17:43;;;;;;;;;;;28.90;41.80;;;;;;5087233;28;20376;-80
2021/09/19 10:20:20;;;;;;;;;;;28.90;40.90;;;;;;5087988;28;20647;-81
2021/09/19 10:22:49;;;;;;;;;;;28.80;41.60;;;;;;5087870;28;19908;-81
2021/09/19 10:25:35;;;;;;;;;;;28.10;42.20;;;;;;5085256;28;20287;-82
2021/09/19 10:28:19;;;;;;;;;;;27.50;43.20;;;;;;5087038;28;19916;-81
2021/09/19 10:31:03;;;;;;;;;;;26.90;45.20;;;;;;5087703;28;20368;-81
2021/09/19 10:33:33;;;;;;;;;;;26.40;45.50;;;;;;5085646;28;19915;-80
2021/09/19 10:36:00;;;;;;;;;;;26.00;46.60;;;;;;5087838;28;19912;-81
2021/09/19 10:38:36;;;;;;;;;;;25.50;46.40;;;;;;5087879;28;19962;-81
2021/09/19 10:41:16;;;;;;;;;;;25.00;47.50;;;;;;5085788;28;19912;-80
2021/09/19 10:43:55;;;;;;;;;;;24.50;48.20;;;;;;5086718;28;19918;-82
2021/09/19 10:46:35;;;;;;;;;;;23.90;49.20;;;;;;5084503;28;20300;-83
2021/09/19 10:49:14;;;;;;;;;;;23.40;50.40;;;;;;5085991;28;19998;-82
2021/09/19 10:51:58;;;;;;;;;;;23.20;51.20;;;;;;5087351;28;19908;-82
2021/09/19 10:54:42;;;;;;;;;;;23.00;52.00;;;;;;5087097;28;19965;-82
2021/09/19 10:57:14;;;;;;;;;;;23.00;52.80;;;;;;5085898;28;20007;-82
2021/09/19 10:59:58;;;;;;;;;;;23.10;52.60;;;;;;5085409;28;20360;-82
2021/09/19 11:02:27;;;;;;;;;;;23.10;51.90;;;;;;5087069;28;19908;-81
2021/09/19 11:05:12;;;;;;;;;;;23.10;51.00;;;;;;5086948;28;19904;-81
2021/09/19 11:07:40;;;;;;;;;;;23.00;50.40;;;;;;5087487;28;19904;-82
2021/09/19 11:10:08;;;;;;;;;;;23.00;52.20;;;;;;5086796;28;19908;-81
2021/09/19 11:12:40;;;;;;;;;;;22.90;52.60;;;;;;5087104;28;19955;-80
2021/09/19 11:15:07;;;;;;;;;;;22.70;53.70;;;;;;5087141;28;19958;-81
2021/09/19 11:17:34;;;;;;;;;;;22.60;53.70;;;;;;5093177;28;19915;-81
2021/09/19 11:20:08;;;;;;;;;;;22.60;54.10;;;;;;5094008;28;19911;-81
2021/09/19 11:22:34;;;;;;;;;;;22.80;52.30;;;;;;5092950;28;20152;-81
2021/09/19 11:24:59;;;;;;;;;;;22.70;52.40;;;;;;5093903;28;20011;-81
2021/09/19 11:27:25;;;;;;;;;;;22.60;53.40;;;;;;5092881;28;20015;-80
2021/09/19 11:29:51;;;;;;;;;;;22.60;53.00;;;;;;5093981;28;19912;-81
2021/09/19 11:32:17;;;;;;;;;;;22.60;53.20;;;;;;5094143;28;19908;-80
2021/09/19 11:34:43;;;;;;;;;;;22.50;53.90;;;;;;5094074;28;19916;-81
2021/09/19 11:37:09;;;;;;;;;;;22.50;54.50;;;;;;5093801;28;19904;-79
2021/09/19 11:39:34;;;;;;;;;;;22.60;52.80;;;;;;5091655;28;20335;-81
2021/09/19 11:42:08;;;;;;;;;;;22.60;53.00;;;;;;5092800;28;19919;-80
2021/09/19 11:44:34;;;;;;;;;;;22.60;52.90;;;;;;5093764;28;19915;-80
2021/09/19 11:47:01;;;;;;;;;;;22.50;52.10;;;;;;5092130;28;19911;-82
2021/09/19 11:49:27;;;;;;;;;;;22.30;52.40;;;;;;5094066;28;19904;-81
2021/09/19 11:51:52;;;;;;;;;;;22.30;52.20;;;;;;5093840;28;19908;-81
2021/09/19 11:54:18;;;;;;;;;;;22.20;51.00;;;;;;5093386;28;20041;-81
2021/09/19 11:56:44;;;;;;;;;;;22.10;51.80;;;;;;5092789;28;20006;-80
2021/09/19 11:59:14;;;;;;;;;;;22.20;51.70;;;;;;5093932;28;20291;-81
2021/09/19 12:01:40;;;;;;;;;;;22.10;52.00;;;;;;5093810;28;19908;-81
2021/09/19 12:04:07;;;;;;;;;;;22.20;52.00;;;;;;5093645;28;19915;-80
2021/09/19 12:06:33;;;;;;;;;;;22.30;52.50;;;;;;5093637;28;19915;-81
2021/09/19 12:08:59;;;;;;;;;;;22.40;52.70;;;;;;5092033;28;19904;-81
2021/09/19 12:11:40;;;;;;;;;;;22.50;52.30;;;;;;5091873;28;20643;-80
2021/09/19 12:14:10;;;;;;;;;;;22.60;51.70;;;;;;5093260;28;19919;-80
2021/09/19 12:16:36;;;;;;;;;;;22.70;51.90;;;;;;5093505;28;19951;-80
2021/09/19 12:19:01;;;;;;;;;;;22.60;52.00;;;;;;5092873;28;20422;-80
2021/09/19 12:21:27;;;;;;;;;;;22.50;51.70;;;;;;5091192;28;20049;-81
2021/09/19 12:23:55;;;;;;;;;;;22.40;52.50;;;;;;5090653;28;20295;-82
2021/09/19 12:26:22;;;;;;;;;;;22.50;52.80;;;;;;5090719;28;19908;-81
2021/09/19 12:28:49;;;;;;;;;;;22.70;52.30;;;;;;5090141;28;20316;-82
2021/09/19 12:31:32;;;;;;;;;;;22.80;51.10;;;;;;5089967;28;20049;-82
2021/09/19 12:33:58;;;;;;;;;;;22.70;51.00;;;;;;5089561;28;19911;-82
2021/09/19 12:36:23;;;;;;;;;;;22.70;51.40;;;;;;5090281;28;19903;-81
2021/09/19 12:38:49;;;;;;;;;;;22.80;51.90;;;;;;5089229;28;20377;-83
2021/09/19 12:41:15;;;;;;;;;;;22.90;51.40;;;;;;5090125;28;19915;-81
2021/09/19 12:43:42;;;;;;;;;;;23.00;50.70;;;;;;5090100;28;20433;-82
2021/09/19 12:46:10;;;;;;;;;;;23.20;49.90;;;;;;5088338;28;20421;-81
2021/09/19 12:48:36;;;;;;;;;;;23.30;49.70;;;;;;5088708;28;19908;-81
2021/09/19 12:51:02;;;;;;;;;;;23.40;49.60;;;;;;5089228;28;19912;-82
2021/09/19 12:53:29;;;;;;;;;;;23.30;48.80;;;;;;5087978;28;20516;-82
2021/09/19 12:55:55;;;;;;;;;;;23.20;49.20;;;;;;5087912;28;19927;-81
2021/09/19 12:58:21;;;;;;;;;;;23.30;49.90;;;;;;5090138;28;19904;-82
2021/09/19 13:00:47;;;;;;;;;;;23.30;50.20;;;;;;5089553;28;20004;-80
2021/09/19 13:03:13;;;;;;;;;;;23.30;49.60;;;;;;5089519;28;19961;-82
2021/09/19 13:05:39;;;;;;;;;;;23.20;49.40;;;;;;5089711;28;19912;-82
2021/09/19 13:08:05;;;;;;;;;;;23.10;50.00;;;;;;5087686;28;19908;-83
2021/09/19 13:10:31;;;;;;;;;;;23.10;50.30;;;;;;5087779;28;19908;-82
2021/09/19 13:12:57;;;;;;;;;;;23.00;50.60;;;;;;5089525;28;19920;-82
2021/09/19 13:15:23;;;;;;;;;;;23.00;50.10;;;;;;5089497;28;19926;-81
2021/09/19 13:17:49;;;;;;;;;;;23.00;49.60;;;;;;5088894;28;19908;-82
2021/09/19 13:20:15;;;;;;;;;;;23.00;49.70;;;;;;5087933;28;20152;-82
2021/09/19 13:22:41;;;;;;;;;;;22.90;48.60;;;;;;5087452;28;19922;-83
2021/09/19 13:25:07;;;;;;;;;;;22.80;49.30;;;;;;5089312;28;19908;-81
2021/09/19 13:27:32;;;;;;;;;;;22.70;49.50;;;;;;5087282;28;19912;-81
2021/09/19 13:29:59;;;;;;;;;;;22.60;49.80;;;;;;5088960;28;19974;-82
2021/09/19 13:32:24;;;;;;;;;;;22.60;50.30;;;;;;5089317;28;19908;-82
2021/09/19 13:34:50;;;;;;;;;;;22.50;50.40;;;;;;5087818;28;20574;-82
2021/09/19 13:37:16;;;;;;;;;;;22.40;51.40;;;;;;5088374;28;19914;-82
2021/09/19 13:39:42;;;;;;;;;;;22.40;51.10;;;;;;5087711;28;20006;-82
2021/09/19 13:42:07;;;;;;;;;;;22.40;51.20;;;;;;5087204;28;20058;-82
2021/09/19 13:44:33;;;;;;;;;;;22.30;51.70;;;;;;5089162;28;20389;-82
2021/09/19 13:47:00;;;;;;;;;;;22.20;51.60;;;;;;5088397;28;19904;-83
2021/09/19 13:49:25;;;;;;;;;;;22.20;51.70;;;;;;5086898;28;19912;-81
2021/09/19 13:51:51;;;;;;;;;;;22.00;51.60;;;;;;5086378;28;19954;-80
2021/09/19 13:54:17;;;;;;;;;;;21.90;51.80;;;;;;5088038;28;19916;-82
2021/09/19 13:56:48;;;;;;;;;;;21.90;52.30;;;;;;5086971;28;19957;-82
2021/09/19 13:59:17;;;;;;;;;;;21.90;52.00;;;;;;5086895;28;19904;-82
2021/09/19 14:01:43;;;;;;;;;;;21.80;52.30;;;;;;5086703;28;19908;-82
2021/09/19 14:04:09;;;;;;;;;;;21.80;52.60;;;;;;5088321;28;19960;-81
2021/09/19 14:06:34;;;;;;;;;;;21.60;52.10;;;;;;5085835;28;19911;-81
2021/09/19 14:09:00;;;;;;;;;;;21.60;52.20;;;;;;5087514;28;20285;-82
2021/09/19 14:11:26;;;;;;;;;;;21.50;52.50;;;;;;5088251;28;19912;-82
2021/09/19 14:13:51;;;;;;;;;;;21.50;52.70;;;;;;5087970;28;19923;-82